sensor_id;sensor_type;location;lat;lon;timestamp;pressure;altitude;pressure_sealevel;temperature;humidity
78411;BME280;67706;51.074;-1.796;2023-09-07T00:01:08;101326.28;;;21.76;97.21
78411;BME280;67706;51.074;-1.796;2023-09-07T00:03:34;101326.72;;;21.84;96.90
78411;BME280;67706;51.074;-1.796;2023-09-07T00:06:06;101321.72;;;21.86;95.93
78411;BME280;67706;51.074;-1.796;2023-09-07T00:08:32;101318.38;;;21.89;95.85
78411;BME280;67706;51.074;-1.796;2023-09-07T00:11:02;101306.03;;;22.07;95.77
78411;BME280;67706;51.074;-1.796;2023-09-07T00:13:28;101314.13;;;22.08;94.73
78411;BME280;67706;51.074;-1.796;2023-09-07T00:15:58;101312.41;;;22.02;95.48
78411;BME280;67706;51.074;-1.796;2023-09-07T00:18:24;101317.97;;;22.02;95.71
78411;BME280;67706;51.074;-1.796;2023-09-07T00:20:50;101326.38;;;22.02;95.65
78411;BME280;67706;51.074;-1.796;2023-09-07T00:23:17;101325.72;;;21.95;95.57
78411;BME280;67706;51.074;-1.796;2023-09-07T00:25:42;101332.63;;;21.88;95.64
78411;BME280;67706;51.074;-1.796;2023-09-07T00:28:08;101333.97;;;21.85;96.06
78411;BME280;67706;51.074;-1.796;2023-09-07T00:30:35;101328.31;;;21.80;95.96
78411;BME280;67706;51.074;-1.796;2023-09-07T00:33:01;101329.84;;;21.71;96.43
78411;BME280;67706;51.074;-1.796;2023-09-07T00:35:27;101325.31;;;21.65;97.32
78411;BME280;67706;51.074;-1.796;2023-09-07T00:37:53;101321.28;;;21.56;97.39
78411;BME280;67706;51.074;-1.796;2023-09-07T00:40:21;101313.78;;;21.62;97.29
78411;BME280;67706;51.074;-1.796;2023-09-07T00:42:47;101312.38;;;21.59;97.22
78411;BME280;67706;51.074;-1.796;2023-09-07T00:45:13;101310.22;;;21.66;96.68
78411;BME280;67706;51.074;-1.796;2023-09-07T00:47:40;101311.13;;;21.50;97.85
78411;BME280;67706;51.074;-1.796;2023-09-07T00:50:06;101315.81;;;21.45;97.82
78411;BME280;67706;51.074;-1.796;2023-09-07T00:52:34;101321.22;;;21.34;98.68
78411;BME280;67706;51.074;-1.796;2023-09-07T00:55:02;101314.13;;;21.44;98.30
78411;BME280;67706;51.074;-1.796;2023-09-07T00:57:30;101316.44;;;21.30;98.78
78411;BME280;67706;51.074;-1.796;2023-09-07T00:59:56;101320.19;;;21.19;99.47
78411;BME280;67706;51.074;-1.796;2023-09-07T01:02:22;101298.28;;;21.11;100.00
78411;BME280;67706;51.074;-1.796;2023-09-07T01:04:50;101295.16;;;21.07;100.00
78411;BME280;67706;51.074;-1.796;2023-09-07T01:07:19;101288.22;;;21.10;100.00
78411;BME280;67706;51.074;-1.796;2023-09-07T01:09:49;101285.38;;;21.05;100.00
78411;BME280;67706;51.074;-1.796;2023-09-07T01:12:17;101286.47;;;21.04;100.00
78411;BME280;67706;51.074;-1.796;2023-09-07T01:14:44;101289.97;;;20.99;100.00
78411;BME280;67706;51.074;-1.796;2023-09-07T01:17:11;101284.75;;;21.19;99.76
78411;BME280;67706;51.074;-1.796;2023-09-07T01:19:39;101290.06;;;21.21;99.35
78411;BME280;67706;51.074;-1.796;2023-09-07T01:22:06;101299.47;;;21.15;99.63
78411;BME280;67706;51.074;-1.796;2023-09-07T01:24:33;101295.50;;;21.11;99.94
78411;BME280;67706;51.074;-1.796;2023-09-07T01:27:01;101292.31;;;21.02;100.00
78411;BME280;67706;51.074;-1.796;2023-09-07T01:29:28;101289.56;;;20.91;100.00
78411;BME280;67706;51.074;-1.796;2023-09-07T01:31:54;101285.38;;;20.88;100.00
78411;BME280;67706;51.074;-1.796;2023-09-07T01:34:21;101285.00;;;20.85;100.00
78411;BME280;67706;51.074;-1.796;2023-09-07T01:36:47;101291.00;;;20.77;100.00
78411;BME280;67706;51.074;-1.796;2023-09-07T01:39:13;101290.69;;;20.73;100.00
78411;BME280;67706;51.074;-1.796;2023-09-07T01:41:39;101297.03;;;20.69;100.00
78411;BME280;67706;51.074;-1.796;2023-09-07T01:44:05;101296.91;;;20.64;100.00
78411;BME280;67706;51.074;-1.796;2023-09-07T01:46:31;101296.09;;;20.63;100.00
78411;BME280;67706;51.074;-1.796;2023-09-07T01:48:57;101297.78;;;20.64;100.00
78411;BME280;67706;51.074;-1.796;2023-09-07T01:51:23;101299.22;;;20.67;100.00
78411;BME280;67706;51.074;-1.796;2023-09-07T01:53:53;101298.47;;;20.71;100.00
78411;BME280;67706;51.074;-1.796;2023-09-07T01:56:20;101298.63;;;20.65;100.00
78411;BME280;67706;51.074;-1.796;2023-09-07T01:58:46;101300.22;;;20.61;100.00
78411;BME280;67706;51.074;-1.796;2023-09-07T02:01:21;101296.00;;;20.58;100.00
78411;BME280;67706;51.074;-1.796;2023-09-07T02:03:47;101293.63;;;20.50;100.00
78411;BME280;67706;51.074;-1.796;2023-09-07T02:06:13;101283.72;;;20.42;100.00
78411;BME280;67706;51.074;-1.796;2023-09-07T02:08:39;101288.97;;;20.39;100.00
78411;BME280;67706;51.074;-1.796;2023-09-07T02:11:05;101278.06;;;20.37;100.00
78411;BME280;67706;51.074;-1.796;2023-09-07T02:13:32;101276.91;;;20.33;100.00
78411;BME280;67706;51.074;-1.796;2023-09-07T02:15:58;101273.16;;;20.44;100.00
78411;BME280;67706;51.074;-1.796;2023-09-07T02:18:24;101280.44;;;20.45;100.00
78411;BME280;67706;51.074;-1.796;2023-09-07T02:20:50;101276.38;;;20.36;100.00
78411;BME280;67706;51.074;-1.796;2023-09-07T02:23:16;101265.75;;;20.33;100.00
78411;BME280;67706;51.074;-1.796;2023-09-07T02:25:42;101268.34;;;20.23;100.00
78411;BME280;67706;51.074;-1.796;2023-09-07T02:28:08;101274.16;;;20.22;100.00
78411;BME280;67706;51.074;-1.796;2023-09-07T02:30:35;101273.94;;;20.23;100.00
78411;BME280;67706;51.074;-1.796;2023-09-07T02:33:01;101265.56;;;20.23;100.00
78411;BME280;67706;51.074;-1.796;2023-09-07T02:35:27;101273.16;;;20.28;100.00
78411;BME280;67706;51.074;-1.796;2023-09-07T02:37:53;101277.91;;;20.27;100.00
78411;BME280;67706;51.074;-1.796;2023-09-07T02:40:19;101273.16;;;20.28;100.00
78411;BME280;67706;51.074;-1.796;2023-09-07T02:42:46;101276.47;;;20.25;100.00
78411;BME280;67706;51.074;-1.796;2023-09-07T02:45:12;101284.22;;;20.11;100.00
78411;BME280;67706;51.074;-1.796;2023-09-07T02:47:39;101284.38;;;20.05;100.00
78411;BME280;67706;51.074;-1.796;2023-09-07T02:50:05;101285.75;;;20.02;100.00
78411;BME280;67706;51.074;-1.796;2023-09-07T02:52:31;101284.03;;;20.01;100.00
78411;BME280;67706;51.074;-1.796;2023-09-07T02:54:57;101287.94;;;20.00;100.00
78411;BME280;67706;51.074;-1.796;2023-09-07T02:57:23;101289.28;;;19.98;100.00
78411;BME280;67706;51.074;-1.796;2023-09-07T02:59:49;101287.50;;;19.92;100.00
78411;BME280;67706;51.074;-1.796;2023-09-07T03:02:15;101280.13;;;19.86;100.00
78411;BME280;67706;51.074;-1.796;2023-09-07T03:04:42;101277.97;;;19.76;100.00
78411;BME280;67706;51.074;-1.796;2023-09-07T03:07:08;101272.66;;;19.74;100.00
78411;BME280;67706;51.074;-1.796;2023-09-07T03:09:34;101272.31;;;19.71;100.00
78411;BME280;67706;51.074;-1.796;2023-09-07T03:12:00;101258.16;;;19.72;100.00
78411;BME280;67706;51.074;-1.796;2023-09-07T03:14:26;101251.25;;;19.75;100.00
78411;BME280;67706;51.074;-1.796;2023-09-07T03:16:52;101253.16;;;19.74;100.00
78411;BME280;67706;51.074;-1.796;2023-09-07T03:19:19;101255.69;;;19.76;100.00
78411;BME280;67706;51.074;-1.796;2023-09-07T03:21:46;101253.25;;;19.79;100.00
78411;BME280;67706;51.074;-1.796;2023-09-07T03:24:12;101256.88;;;19.80;100.00
78411;BME280;67706;51.074;-1.796;2023-09-07T03:26:40;101260.53;;;19.80;100.00
78411;BME280;67706;51.074;-1.796;2023-09-07T03:29:06;101267.28;;;19.85;100.00
78411;BME280;67706;51.074;-1.796;2023-09-07T03:31:32;101272.41;;;19.76;100.00
78411;BME280;67706;51.074;-1.796;2023-09-07T03:33:58;101272.53;;;19.69;100.00
78411;BME280;67706;51.074;-1.796;2023-09-07T03:36:24;101268.69;;;19.59;100.00
78411;BME280;67706;51.074;-1.796;2023-09-07T03:38:51;101259.75;;;19.57;100.00
78411;BME280;67706;51.074;-1.796;2023-09-07T03:41:17;101252.50;;;19.56;100.00
78411;BME280;67706;51.074;-1.796;2023-09-07T03:43:43;101254.78;;;19.59;100.00
78411;BME280;67706;51.074;-1.796;2023-09-07T03:46:09;101250.34;;;19.58;100.00
78411;BME280;67706;51.074;-1.796;2023-09-07T03:48:35;101256.22;;;19.73;100.00
78411;BME280;67706;51.074;-1.796;2023-09-07T03:51:05;101256.94;;;19.68;100.00
78411;BME280;67706;51.074;-1.796;2023-09-07T03:53:31;101253.59;;;19.55;100.00
78411;BME280;67706;51.074;-1.796;2023-09-07T03:55:58;101240.94;;;19.47;100.00
78411;BME280;67706;51.074;-1.796;2023-09-07T03:58:24;101233.56;;;19.41;100.00
78411;BME280;67706;51.074;-1.796;2023-09-07T04:00:50;101218.19;;;19.39;100.00
78411;BME280;67706;51.074;-1.796;2023-09-07T04:03:16;101220.97;;;19.39;100.00
78411;BME280;67706;51.074;-1.796;2023-09-07T04:05:41;101228.53;;;19.55;100.00
78411;BME280;67706;51.074;-1.796;2023-09-07T04:08:07;101229.44;;;19.72;100.00
78411;BME280;67706;51.074;-1.796;2023-09-07T04:10:36;101228.97;;;19.75;100.00
78411;BME280;67706;51.074;-1.796;2023-09-07T04:13:04;101234.03;;;19.78;100.00
78411;BME280;67706;51.074;-1.796;2023-09-07T04:15:30;101228.56;;;19.83;100.00
78411;BME280;67706;51.074;-1.796;2023-09-07T04:17:56;101237.25;;;19.87;100.00
78411;BME280;67706;51.074;-1.796;2023-09-07T04:20:22;101230.59;;;19.88;100.00
78411;BME280;67706;51.074;-1.796;2023-09-07T04:22:49;101238.09;;;19.87;100.00
78411;BME280;67706;51.074;-1.796;2023-09-07T04:25:15;101231.94;;;19.85;100.00
78411;BME280;67706;51.074;-1.796;2023-09-07T04:27:41;101233.16;;;19.77;100.00
78411;BME280;67706;51.074;-1.796;2023-09-07T04:30:09;101238.53;;;19.67;100.00
78411;BME280;67706;51.074;-1.796;2023-09-07T04:32:35;101238.41;;;19.74;100.00
78411;BME280;67706;51.074;-1.796;2023-09-07T04:35:01;101250.53;;;19.68;100.00
78411;BME280;67706;51.074;-1.796;2023-09-07T04:37:27;101252.00;;;19.59;100.00
78411;BME280;67706;51.074;-1.796;2023-09-07T04:39:53;101250.47;;;19.51;100.00
78411;BME280;67706;51.074;-1.796;2023-09-07T04:42:19;101248.41;;;19.47;100.00
78411;BME280;67706;51.074;-1.796;2023-09-07T04:44:46;101258.47;;;19.48;100.00
78411;BME280;67706;51.074;-1.796;2023-09-07T04:47:13;101253.84;;;19.53;100.00
78411;BME280;67706;51.074;-1.796;2023-09-07T04:49:39;101260.88;;;19.56;100.00
78411;BME280;67706;51.074;-1.796;2023-09-07T04:52:06;101262.81;;;19.44;100.00
78411;BME280;67706;51.074;-1.796;2023-09-07T04:54:34;101259.81;;;19.34;100.00
78411;BME280;67706;51.074;-1.796;2023-09-07T04:57:05;101264.75;;;19.32;100.00
78411;BME280;67706;51.074;-1.796;2023-09-07T04:59:31;101252.66;;;19.26;100.00
78411;BME280;67706;51.074;-1.796;2023-09-07T05:01:59;101244.81;;;19.23;100.00
78411;BME280;67706;51.074;-1.796;2023-09-07T05:04:27;101246.38;;;19.19;100.00
78411;BME280;67706;51.074;-1.796;2023-09-07T05:06:53;101232.94;;;19.28;100.00
78411;BME280;67706;51.074;-1.796;2023-09-07T05:09:19;101240.94;;;19.24;100.00
78411;BME280;67706;51.074;-1.796;2023-09-07T05:11:46;101240.69;;;19.26;100.00
78411;BME280;67706;51.074;-1.796;2023-09-07T05:14:12;101242.63;;;19.25;100.00
78411;BME280;67706;51.074;-1.796;2023-09-07T05:16:38;101243.59;;;19.19;100.00
78411;BME280;67706;51.074;-1.796;2023-09-07T05:19:04;101240.47;;;19.16;100.00
78411;BME280;67706;51.074;-1.796;2023-09-07T05:21:30;101241.56;;;19.15;100.00
78411;BME280;67706;51.074;-1.796;2023-09-07T05:23:56;101244.94;;;19.17;100.00
78411;BME280;67706;51.074;-1.796;2023-09-07T05:26:23;101250.28;;;19.18;100.00
78411;BME280;67706;51.074;-1.796;2023-09-07T05:28:50;101246.03;;;19.16;100.00
78411;BME280;67706;51.074;-1.796;2023-09-07T05:31:16;101242.53;;;19.20;100.00
78411;BME280;67706;51.074;-1.796;2023-09-07T05:33:42;101251.59;;;19.16;100.00
78411;BME280;67706;51.074;-1.796;2023-09-07T05:36:08;101243.50;;;19.14;100.00
78411;BME280;67706;51.074;-1.796;2023-09-07T05:38:35;101243.84;;;19.18;100.00
78411;BME280;67706;51.074;-1.796;2023-09-07T05:41:01;101236.84;;;19.15;100.00
78411;BME280;67706;51.074;-1.796;2023-09-07T05:43:27;101231.16;;;19.22;100.00
78411;BME280;67706;51.074;-1.796;2023-09-07T05:45:53;101236.84;;;19.27;100.00
78411;BME280;67706;51.074;-1.796;2023-09-07T05:48:19;101236.31;;;19.30;100.00
78411;BME280;67706;51.074;-1.796;2023-09-07T05:50:45;101229.00;;;19.35;100.00
78411;BME280;67706;51.074;-1.796;2023-09-07T05:53:11;101227.16;;;19.41;100.00
78411;BME280;67706;51.074;-1.796;2023-09-07T05:55:38;101226.16;;;19.47;100.00
78411;BME280;67706;51.074;-1.796;2023-09-07T05:58:05;101228.53;;;19.55;100.00
78411;BME280;67706;51.074;-1.796;2023-09-07T06:00:31;101225.38;;;19.63;99.40
78411;BME280;67706;51.074;-1.796;2023-09-07T06:02:58;101225.63;;;19.61;99.81
78411;BME280;67706;51.074;-1.796;2023-09-07T06:05:24;101229.75;;;19.59;99.76
78411;BME280;67706;51.074;-1.796;2023-09-07T06:07:50;101228.91;;;19.58;99.20
78411;BME280;67706;51.074;-1.796;2023-09-07T06:10:16;101233.22;;;19.66;99.15
78411;BME280;67706;51.074;-1.796;2023-09-07T06:12:43;101239.41;;;19.68;98.82
78411;BME280;67706;51.074;-1.796;2023-09-07T06:15:09;101235.63;;;19.74;99.01
78411;BME280;67706;51.074;-1.796;2023-09-07T06:17:36;101234.13;;;19.83;98.48
78411;BME280;67706;51.074;-1.796;2023-09-07T06:20:03;101236.41;;;19.86;98.08
78411;BME280;67706;51.074;-1.796;2023-09-07T06:22:30;101245.34;;;19.88;98.04
78411;BME280;67706;51.074;-1.796;2023-09-07T06:24:56;101240.47;;;19.95;97.59
78411;BME280;67706;51.074;-1.796;2023-09-07T06:27:22;101238.78;;;19.94;97.57
78411;BME280;67706;51.074;-1.796;2023-09-07T06:29:49;101240.81;;;19.99;97.46
78411;BME280;67706;51.074;-1.796;2023-09-07T06:32:16;101239.47;;;20.01;98.00
78411;BME280;67706;51.074;-1.796;2023-09-07T06:34:42;101240.78;;;20.10;97.47
78411;BME280;67706;51.074;-1.796;2023-09-07T06:37:08;101241.97;;;20.14;97.29
78411;BME280;67706;51.074;-1.796;2023-09-07T06:39:34;101242.16;;;20.24;96.69
78411;BME280;67706;51.074;-1.796;2023-09-07T06:42:00;101240.06;;;20.31;96.23
78411;BME280;67706;51.074;-1.796;2023-09-07T06:44:26;101237.38;;;20.36;96.00
78411;BME280;67706;51.074;-1.796;2023-09-07T06:46:53;101243.38;;;20.45;95.76
78411;BME280;67706;51.074;-1.796;2023-09-07T06:49:19;101235.38;;;20.48;95.77
78411;BME280;67706;51.074;-1.796;2023-09-07T06:51:45;101238.81;;;20.55;95.51
78411;BME280;67706;51.074;-1.796;2023-09-07T06:54:12;101241.16;;;20.64;95.26
78411;BME280;67706;51.074;-1.796;2023-09-07T06:56:38;101254.09;;;20.70;95.03
78411;BME280;67706;51.074;-1.796;2023-09-07T06:59:05;101247.16;;;20.72;94.67
78411;BME280;67706;51.074;-1.796;2023-09-07T07:01:32;101247.41;;;20.71;94.12
78411;BME280;67706;51.074;-1.796;2023-09-07T07:03:58;101259.50;;;20.76;94.02
78411;BME280;67706;51.074;-1.796;2023-09-07T07:06:25;101257.13;;;20.85;93.65
78411;BME280;67706;51.074;-1.796;2023-09-07T07:08:51;101256.34;;;20.89;93.10
78411;BME280;67706;51.074;-1.796;2023-09-07T07:11:17;101245.78;;;20.91;93.16
78411;BME280;67706;51.074;-1.796;2023-09-07T07:13:43;101251.03;;;20.88;92.92
78411;BME280;67706;51.074;-1.796;2023-09-07T07:16:10;101257.84;;;20.97;92.33
78411;BME280;67706;51.074;-1.796;2023-09-07T07:18:36;101251.78;;;21.00;92.21
78411;BME280;67706;51.074;-1.796;2023-09-07T07:21:03;101253.56;;;21.06;91.58
78411;BME280;67706;51.074;-1.796;2023-09-07T07:23:29;101255.53;;;21.27;90.61
78411;BME280;67706;51.074;-1.796;2023-09-07T07:25:55;101245.81;;;21.29;91.21
78411;BME280;67706;51.074;-1.796;2023-09-07T07:28:21;101257.75;;;21.25;90.68
78411;BME280;67706;51.074;-1.796;2023-09-07T07:30:47;101254.06;;;21.41;90.37
78411;BME280;67706;51.074;-1.796;2023-09-07T07:33:13;101253.94;;;21.53;89.74
78411;BME280;67706;51.074;-1.796;2023-09-07T07:35:39;101247.03;;;21.60;89.18
78411;BME280;67706;51.074;-1.796;2023-09-07T07:38:06;101245.69;;;21.63;88.62
78411;BME280;67706;51.074;-1.796;2023-09-07T07:40:33;101248.31;;;21.74;88.27
78411;BME280;67706;51.074;-1.796;2023-09-07T07:42:59;101249.25;;;21.80;87.77
78411;BME280;67706;51.074;-1.796;2023-09-07T07:45:25;101250.56;;;21.94;86.96
78411;BME280;67706;51.074;-1.796;2023-09-07T07:47:53;101250.25;;;21.90;86.81
78411;BME280;67706;51.074;-1.796;2023-09-07T07:50:19;101248.03;;;21.92;86.25
78411;BME280;67706;51.074;-1.796;2023-09-07T07:52:45;101241.66;;;21.97;86.26
78411;BME280;67706;51.074;-1.796;2023-09-07T07:55:12;101246.44;;;22.01;86.58
78411;BME280;67706;51.074;-1.796;2023-09-07T07:57:38;101242.47;;;21.97;86.76
78411;BME280;67706;51.074;-1.796;2023-09-07T08:00:05;101247.81;;;21.99;86.41
78411;BME280;67706;51.074;-1.796;2023-09-07T08:02:32;101238.13;;;22.06;86.12
78411;BME280;67706;51.074;-1.796;2023-09-07T08:04:58;101237.84;;;22.08;86.44
78411;BME280;67706;51.074;-1.796;2023-09-07T08:07:24;101247.06;;;22.08;87.04
78411;BME280;67706;51.074;-1.796;2023-09-07T08:09:52;101232.59;;;22.11;85.56
78411;BME280;67706;51.074;-1.796;2023-09-07T08:12:18;101241.69;;;22.29;85.63
78411;BME280;67706;51.074;-1.796;2023-09-07T08:14:44;101232.47;;;22.28;85.61
78411;BME280;67706;51.074;-1.796;2023-09-07T08:17:10;101238.72;;;22.40;85.50
78411;BME280;67706;51.074;-1.796;2023-09-07T08:19:36;101236.28;;;22.49;84.81
78411;BME280;67706;51.074;-1.796;2023-09-07T08:22:04;101251.47;;;22.58;84.12
78411;BME280;67706;51.074;-1.796;2023-09-07T08:24:31;101243.41;;;22.61;83.78
78411;BME280;67706;51.074;-1.796;2023-09-07T08:26:57;101249.28;;;22.60;84.42
78411;BME280;67706;51.074;-1.796;2023-09-07T08:29:26;101254.41;;;22.73;83.45
78411;BME280;67706;51.074;-1.796;2023-09-07T08:31:52;101251.41;;;22.84;83.33
78411;BME280;67706;51.074;-1.796;2023-09-07T08:34:18;101245.03;;;22.94;82.22
78411;BME280;67706;51.074;-1.796;2023-09-07T08:36:46;101246.16;;;22.93;82.51
78411;BME280;67706;51.074;-1.796;2023-09-07T08:39:12;101250.91;;;22.92;82.57
78411;BME280;67706;51.074;-1.796;2023-09-07T08:41:39;101250.75;;;23.09;82.05
78411;BME280;67706;51.074;-1.796;2023-09-07T08:44:09;101242.63;;;23.13;81.51
78411;BME280;67706;51.074;-1.796;2023-09-07T08:46:36;101244.38;;;23.24;80.88
78411;BME280;67706;51.074;-1.796;2023-09-07T08:49:03;101235.81;;;23.35;80.37
78411;BME280;67706;51.074;-1.796;2023-09-07T08:51:30;101234.19;;;23.49;80.31
78411;BME280;67706;51.074;-1.796;2023-09-07T08:53:57;101231.16;;;23.56;79.47
78411;BME280;67706;51.074;-1.796;2023-09-07T08:56:24;101237.06;;;23.69;78.48
78411;BME280;67706;51.074;-1.796;2023-09-07T08:58:50;101233.72;;;23.78;77.58
78411;BME280;67706;51.074;-1.796;2023-09-07T09:01:16;101229.25;;;23.82;76.72
78411;BME280;67706;51.074;-1.796;2023-09-07T09:03:43;101229.59;;;23.95;76.31
78411;BME280;67706;51.074;-1.796;2023-09-07T09:06:10;101231.53;;;23.90;75.55
78411;BME280;67706;51.074;-1.796;2023-09-07T09:08:43;101233.78;;;23.88;75.57
78411;BME280;67706;51.074;-1.796;2023-09-07T09:11:09;101233.84;;;24.08;75.04
78411;BME280;67706;51.074;-1.796;2023-09-07T09:13:36;101237.22;;;24.10;74.08
78411;BME280;67706;51.074;-1.796;2023-09-07T09:16:02;101231.91;;;24.23;74.07
78411;BME280;67706;51.074;-1.796;2023-09-07T09:18:29;101228.81;;;24.30;73.01
78411;BME280;67706;51.074;-1.796;2023-09-07T09:20:55;101225.75;;;24.36;74.03
78411;BME280;67706;51.074;-1.796;2023-09-07T09:23:24;101219.59;;;24.39;74.08
78411;BME280;67706;51.074;-1.796;2023-09-07T09:25:50;101223.78;;;24.52;71.88
78411;BME280;67706;51.074;-1.796;2023-09-07T09:28:16;101228.25;;;24.53;71.69
78411;BME280;67706;51.074;-1.796;2023-09-07T09:30:42;101229.13;;;24.54;72.13
78411;BME280;67706;51.074;-1.796;2023-09-07T09:33:09;101217.31;;;24.67;71.39
78411;BME280;67706;51.074;-1.796;2023-09-07T09:35:36;101210.88;;;24.71;71.00
78411;BME280;67706;51.074;-1.796;2023-09-07T09:38:04;101213.97;;;24.85;70.63
78411;BME280;67706;51.074;-1.796;2023-09-07T09:40:30;101216.22;;;24.83;70.03
78411;BME280;67706;51.074;-1.796;2023-09-07T09:42:57;101222.69;;;24.88;68.63
78411;BME280;67706;51.074;-1.796;2023-09-07T09:45:23;101220.97;;;24.92;67.49
78411;BME280;67706;51.074;-1.796;2023-09-07T09:47:54;101223.22;;;24.95;67.46
78411;BME280;67706;51.074;-1.796;2023-09-07T09:50:22;101226.28;;;25.04;67.44
78411;BME280;67706;51.074;-1.796;2023-09-07T09:52:48;101222.88;;;25.17;67.55
78411;BME280;67706;51.074;-1.796;2023-09-07T09:55:15;101218.09;;;25.22;67.83
78411;BME280;67706;51.074;-1.796;2023-09-07T09:57:41;101212.41;;;25.38;67.74
78411;BME280;67706;51.074;-1.796;2023-09-07T10:00:08;101221.97;;;25.47;67.28
78411;BME280;67706;51.074;-1.796;2023-09-07T10:02:55;101211.84;;;25.51;67.15
78411;BME280;67706;51.074;-1.796;2023-09-07T10:05:23;101207.09;;;25.46;67.32
78411;BME280;67706;51.074;-1.796;2023-09-07T10:07:51;101205.88;;;25.62;66.73
78411;BME280;67706;51.074;-1.796;2023-09-07T10:10:19;101203.91;;;25.68;66.49
78411;BME280;67706;51.074;-1.796;2023-09-07T10:12:51;101209.47;;;25.78;66.19
78411;BME280;67706;51.074;-1.796;2023-09-07T10:15:22;101202.50;;;25.65;66.13
78411;BME280;67706;51.074;-1.796;2023-09-07T10:17:49;101195.47;;;25.63;66.32
78411;BME280;67706;51.074;-1.796;2023-09-07T10:20:16;101208.38;;;25.69;65.97
78411;BME280;67706;51.074;-1.796;2023-09-07T10:22:43;101199.88;;;25.79;66.62
78411;BME280;67706;51.074;-1.796;2023-09-07T10:25:19;101202.31;;;25.95;64.67
78411;BME280;67706;51.074;-1.796;2023-09-07T10:27:45;101201.19;;;25.96;65.36
78411;BME280;67706;51.074;-1.796;2023-09-07T10:30:12;101196.91;;;26.04;64.85
78411;BME280;67706;51.074;-1.796;2023-09-07T10:32:41;101199.34;;;26.21;64.25
78411;BME280;67706;51.074;-1.796;2023-09-07T10:35:15;101201.25;;;26.30;64.54
78411;BME280;67706;51.074;-1.796;2023-09-07T10:37:44;101191.19;;;26.58;63.86
78411;BME280;67706;51.074;-1.796;2023-09-07T10:40:10;101190.03;;;26.59;63.96
78411;BME280;67706;51.074;-1.796;2023-09-07T10:42:38;101183.00;;;26.56;63.33
78411;BME280;67706;51.074;-1.796;2023-09-07T10:45:11;101185.28;;;26.54;62.77
78411;BME280;67706;51.074;-1.796;2023-09-07T10:47:40;101177.25;;;26.71;62.08
78411;BME280;67706;51.074;-1.796;2023-09-07T10:50:07;101179.44;;;26.80;61.33
78411;BME280;67706;51.074;-1.796;2023-09-07T10:52:33;101176.06;;;26.77;62.29
78411;BME280;67706;51.074;-1.796;2023-09-07T10:54:59;101181.41;;;26.79;61.64
78411;BME280;67706;51.074;-1.796;2023-09-07T10:57:26;101166.94;;;26.91;61.09
78411;BME280;67706;51.074;-1.796;2023-09-07T10:59:53;101172.81;;;26.94;59.54
78411;BME280;67706;51.074;-1.796;2023-09-07T11:02:20;101171.03;;;27.03;60.02
78411;BME280;67706;51.074;-1.796;2023-09-07T11:04:46;101158.00;;;27.07;59.33
78411;BME280;67706;51.074;-1.796;2023-09-07T11:07:13;101164.72;;;27.11;59.66
78411;BME280;67706;51.074;-1.796;2023-09-07T11:09:40;101162.31;;;27.23;59.61
78411;BME280;67706;51.074;-1.796;2023-09-07T11:12:06;101170.13;;;27.31;59.24
78411;BME280;67706;51.074;-1.796;2023-09-07T11:14:33;101161.03;;;27.39;57.68
78411;BME280;67706;51.074;-1.796;2023-09-07T11:17:01;101158.22;;;27.39;57.86
78411;BME280;67706;51.074;-1.796;2023-09-07T11:19:31;101155.84;;;27.46;58.25
78411;BME280;67706;51.074;-1.796;2023-09-07T11:21:58;101158.69;;;27.65;57.00
78411;BME280;67706;51.074;-1.796;2023-09-07T11:24:24;101149.03;;;27.71;56.87
78411;BME280;67706;51.074;-1.796;2023-09-07T11:26:51;101150.09;;;27.75;56.71
78411;BME280;67706;51.074;-1.796;2023-09-07T11:29:18;101151.00;;;27.89;56.78
78411;BME280;67706;51.074;-1.796;2023-09-07T11:31:44;101147.97;;;27.86;56.65
78411;BME280;67706;51.074;-1.796;2023-09-07T11:34:12;101143.63;;;27.93;56.32
78411;BME280;67706;51.074;-1.796;2023-09-07T11:36:39;101139.53;;;28.04;54.82
78411;BME280;67706;51.074;-1.796;2023-09-07T11:39:05;101143.09;;;27.91;55.57
78411;BME280;67706;51.074;-1.796;2023-09-07T11:41:37;101134.19;;;28.03;55.57
78411;BME280;67706;51.074;-1.796;2023-09-07T11:44:04;101127.94;;;28.06;54.97
78411;BME280;67706;51.074;-1.796;2023-09-07T11:46:30;101124.09;;;28.15;55.23
78411;BME280;67706;51.074;-1.796;2023-09-07T11:48:56;101130.13;;;28.27;53.68
78411;BME280;67706;51.074;-1.796;2023-09-07T11:51:23;101119.59;;;28.47;52.94
78411;BME280;67706;51.074;-1.796;2023-09-07T11:53:49;101115.50;;;28.39;53.54
78411;BME280;67706;51.074;-1.796;2023-09-07T11:56:15;101119.69;;;28.42;53.98
78411;BME280;67706;51.074;-1.796;2023-09-07T11:58:41;101117.09;;;28.45;54.00
78411;BME280;67706;51.074;-1.796;2023-09-07T12:01:09;101109.84;;;28.39;53.94
78411;BME280;67706;51.074;-1.796;2023-09-07T12:03:35;101110.38;;;28.41;53.31
78411;BME280;67706;51.074;-1.796;2023-09-07T12:06:01;101110.88;;;28.29;53.89
78411;BME280;67706;51.074;-1.796;2023-09-07T12:08:29;101105.59;;;28.42;54.15
78411;BME280;67706;51.074;-1.796;2023-09-07T12:10:55;101107.34;;;28.38;53.91
78411;BME280;67706;51.074;-1.796;2023-09-07T12:13:21;101105.44;;;28.33;54.20
78411;BME280;67706;51.074;-1.796;2023-09-07T12:15:47;101103.38;;;28.39;53.29
78411;BME280;67706;51.074;-1.796;2023-09-07T12:18:13;101098.78;;;28.43;53.12
78411;BME280;67706;51.074;-1.796;2023-09-07T12:20:39;101098.38;;;28.49;53.47
78411;BME280;67706;51.074;-1.796;2023-09-07T12:23:05;101101.06;;;28.73;52.59
78411;BME280;67706;51.074;-1.796;2023-09-07T12:25:32;101105.34;;;28.70;52.69
78411;BME280;67706;51.074;-1.796;2023-09-07T12:27:58;101087.38;;;28.80;52.80
78411;BME280;67706;51.074;-1.796;2023-09-07T12:30:24;101088.28;;;28.62;53.48
78411;BME280;67706;51.074;-1.796;2023-09-07T12:32:51;101090.28;;;28.75;53.04